sensor_id;sensor_type;location;lat;lon;timestamp;temperature;humidity
7530;DHT22;3806;52.270;10.544;2022-08-05T00:00:34;24.50;99.90
7530;DHT22;3806;52.270;10.544;2022-08-05T00:03:00;24.50;99.90
7530;DHT22;3806;52.270;10.544;2022-08-05T00:05:26;24.40;99.90
7530;DHT22;3806;52.270;10.544;2022-08-05T00:07:52;24.30;99.90
7530;DHT22;3806;52.270;10.544;2022-08-05T00:10:17;24.20;99.90
7530;DHT22;3806;52.270;10.544;2022-08-05T00:12:43;24.10;99.90
7530;DHT22;3806;52.270;10.544;2022-08-05T00:15:10;24.00;99.90
7530;DHT22;3806;52.270;10.544;2022-08-05T00:17:35;23.90;99.90
7530;DHT22;3806;52.270;10.544;2022-08-05T00:20:01;23.90;99.90
7530;DHT22;3806;52.270;10.544;2022-08-05T00:22:27;23.80;99.90
7530;DHT22;3806;52.270;10.544;2022-08-05T00:24:52;23.80;99.90
7530;DHT22;3806;52.270;10.544;2022-08-05T00:27:18;23.90;99.90
7530;DHT22;3806;52.270;10.544;2022-08-05T00:29:44;23.90;99.90
7530;DHT22;3806;52.270;10.544;2022-08-05T00:32:09;23.90;99.90
7530;DHT22;3806;52.270;10.544;2022-08-05T00:34:41;23.90;99.90
7530;DHT22;3806;52.270;10.544;2022-08-05T00:37:07;23.90;99.90
7530;DHT22;3806;52.270;10.544;2022-08-05T00:39:32;23.90;99.90
7530;DHT22;3806;52.270;10.544;2022-08-05T00:41:58;23.90;99.90
7530;DHT22;3806;52.270;10.544;2022-08-05T00:44:24;23.90;99.90
7530;DHT22;3806;52.270;10.544;2022-08-05T00:46:49;23.90;99.90
7530;DHT22;3806;52.270;10.544;2022-08-05T00:49:15;23.80;99.90
7530;DHT22;3806;52.270;10.544;2022-08-05T00:51:44;23.80;99.90
7530;DHT22;3806;52.270;10.544;2022-08-05T00:54:11;23.70;99.90
7530;DHT22;3806;52.270;10.544;2022-08-05T00:56:38;23.70;99.90
7530;DHT22;3806;52.270;10.544;2022-08-05T00:59:04;23.70;99.90
7530;DHT22;3806;52.270;10.544;2022-08-05T01:01:30;23.70;99.90
7530;DHT22;3806;52.270;10.544;2022-08-05T01:03:55;23.70;99.90
7530;DHT22;3806;52.270;10.544;2022-08-05T01:06:21;23.70;99.90
7530;DHT22;3806;52.270;10.544;2022-08-05T01:08:47;23.60;99.90
7530;DHT22;3806;52.270;10.544;2022-08-05T01:11:29;23.60;99.90
7530;DHT22;3806;52.270;10.544;2022-08-05T01:14:26;23.60;99.90
7530;DHT22;3806;52.270;10.544;2022-08-05T01:17:04;23.60;99.90
7530;DHT22;3806;52.270;10.544;2022-08-05T01:19:42;23.50;99.90
7530;DHT22;3806;52.270;10.544;2022-08-05T01:29:55;23.50;99.90
7530;DHT22;3806;52.270;10.544;2022-08-05T01:32:24;23.40;99.90
7530;DHT22;3806;52.270;10.544;2022-08-05T01:35:01;23.40;99.90
7530;DHT22;3806;52.270;10.544;2022-08-05T01:37:44;23.40;99.90
7530;DHT22;3806;52.270;10.544;2022-08-05T01:40:11;23.40;99.90
7530;DHT22;3806;52.270;10.544;2022-08-05T01:42:40;23.40;99.90
7530;DHT22;3806;52.270;10.544;2022-08-05T01:45:07;23.40;99.90
7530;DHT22;3806;52.270;10.544;2022-08-05T01:47:34;23.30;99.90
7530;DHT22;3806;52.270;10.544;2022-08-05T01:50:05;23.30;99.90
7530;DHT22;3806;52.270;10.544;2022-08-05T01:52:32;23.30;99.90
7530;DHT22;3806;52.270;10.544;2022-08-05T01:55:04;23.30;99.90
7530;DHT22;3806;52.270;10.544;2022-08-05T01:57:39;23.30;99.90
7530;DHT22;3806;52.270;10.544;2022-08-05T02:00:06;23.30;99.90
7530;DHT22;3806;52.270;10.544;2022-08-05T02:02:36;23.30;99.90
7530;DHT22;3806;52.270;10.544;2022-08-05T02:05:06;23.30;99.90
7530;DHT22;3806;52.270;10.544;2022-08-05T02:07:34;23.30;99.90
7530;DHT22;3806;52.270;10.544;2022-08-05T02:10:00;23.30;99.90
7530;DHT22;3806;52.270;10.544;2022-08-05T02:15:21;23.30;99.90
7530;DHT22;3806;52.270;10.544;2022-08-05T02:18:29;23.30;99.90
7530;DHT22;3806;52.270;10.544;2022-08-05T02:20:51;23.30;99.90
7530;DHT22;3806;52.270;10.544;2022-08-05T02:23:21;23.30;99.90
7530;DHT22;3806;52.270;10.544;2022-08-05T02:25:48;23.20;99.90
7530;DHT22;3806;52.270;10.544;2022-08-05T02:28:16;23.20;99.90
7530;DHT22;3806;52.270;10.544;2022-08-05T02:30:47;23.20;99.90
7530;DHT22;3806;52.270;10.544;2022-08-05T02:33:17;23.20;99.90
7530;DHT22;3806;52.270;10.544;2022-08-05T02:35:45;23.10;99.90
7530;DHT22;3806;52.270;10.544;2022-08-05T02:38:12;23.10;99.90
7530;DHT22;3806;52.270;10.544;2022-08-05T02:40:41;23.10;99.90
7530;DHT22;3806;52.270;10.544;2022-08-05T02:43:10;23.00;99.90
7530;DHT22;3806;52.270;10.544;2022-08-05T02:45:38;23.00;99.90
7530;DHT22;3806;52.270;10.544;2022-08-05T02:48:06;23.00;99.90
7530;DHT22;3806;52.270;10.544;2022-08-05T02:50:34;23.00;99.90
7530;DHT22;3806;52.270;10.544;2022-08-05T02:53:01;23.00;99.90
7530;DHT22;3806;52.270;10.544;2022-08-05T02:55:28;22.90;99.90
7530;DHT22;3806;52.270;10.544;2022-08-05T02:57:55;22.90;99.90
7530;DHT22;3806;52.270;10.544;2022-08-05T03:00:21;22.80;99.90
7530;DHT22;3806;52.270;10.544;2022-08-05T03:02:47;22.80;99.90
7530;DHT22;3806;52.270;10.544;2022-08-05T03:05:14;22.80;99.90
7530;DHT22;3806;52.270;10.544;2022-08-05T03:07:41;22.80;99.90
7530;DHT22;3806;52.270;10.544;2022-08-05T03:10:08;22.70;99.90
7530;DHT22;3806;52.270;10.544;2022-08-05T03:12:35;22.70;99.90
7530;DHT22;3806;52.270;10.544;2022-08-05T03:15:03;22.70;99.90
7530;DHT22;3806;52.270;10.544;2022-08-05T03:17:29;22.70;99.90
7530;DHT22;3806;52.270;10.544;2022-08-05T03:19:54;22.70;99.90
7530;DHT22;3806;52.270;10.544;2022-08-05T03:22:20;22.70;99.90
7530;DHT22;3806;52.270;10.544;2022-08-05T03:24:47;22.70;99.90
7530;DHT22;3806;52.270;10.544;2022-08-05T03:27:14;22.60;99.90
7530;DHT22;3806;52.270;10.544;2022-08-05T03:29:40;22.60;99.90
7530;DHT22;3806;52.270;10.544;2022-08-05T03:32:09;22.60;99.90
7530;DHT22;3806;52.270;10.544;2022-08-05T03:34:36;22.60;99.90
7530;DHT22;3806;52.270;10.544;2022-08-05T03:37:03;22.50;99.90
7530;DHT22;3806;52.270;10.544;2022-08-05T03:39:29;22.50;99.90
7530;DHT22;3806;52.270;10.544;2022-08-05T03:41:55;22.60;99.90
7530;DHT22;3806;52.270;10.544;2022-08-05T03:44:20;22.60;99.90
7530;DHT22;3806;52.270;10.544;2022-08-05T03:46:46;22.60;99.90
7530;DHT22;3806;52.270;10.544;2022-08-05T03:49:12;22.60;99.90
7530;DHT22;3806;52.270;10.544;2022-08-05T03:51:45;22.50;99.90
7530;DHT22;3806;52.270;10.544;2022-08-05T03:56:57;22.40;99.90
7530;DHT22;3806;52.270;10.544;2022-08-05T03:59:41;22.40;99.90
7530;DHT22;3806;52.270;10.544;2022-08-05T04:02:09;22.40;99.90
7530;DHT22;3806;52.270;10.544;2022-08-05T04:04:37;22.40;99.90
7530;DHT22;3806;52.270;10.544;2022-08-05T04:07:04;22.40;99.90
7530;DHT22;3806;52.270;10.544;2022-08-05T04:09:30;22.30;99.90
7530;DHT22;3806;52.270;10.544;2022-08-05T04:11:56;22.20;99.90
7530;DHT22;3806;52.270;10.544;2022-08-05T04:14:24;22.20;99.90
7530;DHT22;3806;52.270;10.544;2022-08-05T04:16:51;22.10;99.90
7530;DHT22;3806;52.270;10.544;2022-08-05T04:19:17;22.10;99.90
7530;DHT22;3806;52.270;10.544;2022-08-05T04:21:42;22.10;99.90
7530;DHT22;3806;52.270;10.544;2022-08-05T04:24:11;22.10;99.90
7530;DHT22;3806;52.270;10.544;2022-08-05T04:26:37;22.00;99.90
7530;DHT22;3806;52.270;10.544;2022-08-05T04:29:02;21.90;99.90
7530;DHT22;3806;52.270;10.544;2022-08-05T04:31:28;21.90;99.90
7530;DHT22;3806;52.270;10.544;2022-08-05T04:33:54;21.80;99.90
7530;DHT22;3806;52.270;10.544;2022-08-05T04:36:19;21.90;99.90
7530;DHT22;3806;52.270;10.544;2022-08-05T04:38:45;21.90;99.90
7530;DHT22;3806;52.270;10.544;2022-08-05T04:41:11;21.90;99.90
7530;DHT22;3806;52.270;10.544;2022-08-05T04:43:37;21.80;99.90
7530;DHT22;3806;52.270;10.544;2022-08-05T04:46:03;21.70;99.90
7530;DHT22;3806;52.270;10.544;2022-08-05T04:48:29;21.80;99.90
7530;DHT22;3806;52.270;10.544;2022-08-05T04:50:55;21.70;99.90
7530;DHT22;3806;52.270;10.544;2022-08-05T04:53:20;21.60;99.90
7530;DHT22;3806;52.270;10.544;2022-08-05T04:55:46;21.60;99.90
7530;DHT22;3806;52.270;10.544;2022-08-05T04:58:15;21.60;99.90
7530;DHT22;3806;52.270;10.544;2022-08-05T05:00:41;21.50;99.90
7530;DHT22;3806;52.270;10.544;2022-08-05T05:03:07;21.50;99.90
7530;DHT22;3806;52.270;10.544;2022-08-05T05:05:34;21.50;99.90
7530;DHT22;3806;52.270;10.544;2022-08-05T05:10:32;21.70;99.90
7530;DHT22;3806;52.270;10.544;2022-08-05T05:13:01;21.80;99.90
7530;DHT22;3806;52.270;10.544;2022-08-05T05:15:27;21.90;99.90
7530;DHT22;3806;52.270;10.544;2022-08-05T05:17:52;22.00;99.90
7530;DHT22;3806;52.270;10.544;2022-08-05T05:20:18;22.10;99.90
7530;DHT22;3806;52.270;10.544;2022-08-05T05:22:44;22.20;99.90
7530;DHT22;3806;52.270;10.544;2022-08-05T05:25:12;22.30;99.90
7530;DHT22;3806;52.270;10.544;2022-08-05T05:27:38;22.30;99.90
7530;DHT22;3806;52.270;10.544;2022-08-05T05:30:05;22.50;99.90
7530;DHT22;3806;52.270;10.544;2022-08-05T05:32:31;22.60;99.90
7530;DHT22;3806;52.270;10.544;2022-08-05T05:34:57;22.70;99.90
7530;DHT22;3806;52.270;10.544;2022-08-05T05:37:22;22.80;99.90
7530;DHT22;3806;52.270;10.544;2022-08-05T05:39:48;22.90;99.90
7530;DHT22;3806;52.270;10.544;2022-08-05T05:42:13;22.90;99.90
7530;DHT22;3806;52.270;10.544;2022-08-05T05:44:39;22.90;99.90
7530;DHT22;3806;52.270;10.544;2022-08-05T05:47:05;23.00;99.90
7530;DHT22;3806;52.270;10.544;2022-08-05T05:49:31;23.00;99.90
7530;DHT22;3806;52.270;10.544;2022-08-05T05:51:57;23.20;99.90
7530;DHT22;3806;52.270;10.544;2022-08-05T05:54:22;23.60;99.90
7530;DHT22;3806;52.270;10.544;2022-08-05T05:56:49;24.80;99.90
7530;DHT22;3806;52.270;10.544;2022-08-05T05:59:14;25.60;99.90
7530;DHT22;3806;52.270;10.544;2022-08-05T06:01:41;26.10;99.90
7530;DHT22;3806;52.270;10.544;2022-08-05T06:04:11;26.90;99.30
7530;DHT22;3806;52.270;10.544;2022-08-05T06:06:42;27.30;97.30
7530;DHT22;3806;52.270;10.544;2022-08-05T06:09:08;27.30;96.40
7530;DHT22;3806;52.270;10.544;2022-08-05T06:11:33;27.20;96.10
7530;DHT22;3806;52.270;10.544;2022-08-05T06:14:00;27.00;95.70
7530;DHT22;3806;52.270;10.544;2022-08-05T06:16:26;26.80;95.80
7530;DHT22;3806;52.270;10.544;2022-08-05T06:18:51;26.60;95.90
7530;DHT22;3806;52.270;10.544;2022-08-05T06:21:17;26.40;96.00
7530;DHT22;3806;52.270;10.544;2022-08-05T06:23:43;26.10;96.30
7530;DHT22;3806;52.270;10.544;2022-08-05T06:26:08;25.80;96.60
7530;DHT22;3806;52.270;10.544;2022-08-05T06:28:34;25.50;97.10
7530;DHT22;3806;52.270;10.544;2022-08-05T06:31:01;25.20;97.50
7530;DHT22;3806;52.270;10.544;2022-08-05T06:33:27;25.00;98.00
7530;DHT22;3806;52.270;10.544;2022-08-05T06:35:52;24.80;98.40
7530;DHT22;3806;52.270;10.544;2022-08-05T06:38:18;24.50;98.90
7530;DHT22;3806;52.270;10.544;2022-08-05T06:40:43;24.20;99.40
7530;DHT22;3806;52.270;10.544;2022-08-05T06:43:09;24.00;99.90
7530;DHT22;3806;52.270;10.544;2022-08-05T06:45:34;23.70;99.90
7530;DHT22;3806;52.270;10.544;2022-08-05T06:48:00;23.60;99.90
7530;DHT22;3806;52.270;10.544;2022-08-05T06:50:26;23.40;99.90
7530;DHT22;3806;52.270;10.544;2022-08-05T06:52:52;23.30;99.90
7530;DHT22;3806;52.270;10.544;2022-08-05T06:55:17;23.30;99.90
7530;DHT22;3806;52.270;10.544;2022-08-05T06:57:43;23.20;99.90
7530;DHT22;3806;52.270;10.544;2022-08-05T07:00:09;23.20;99.90
7530;DHT22;3806;52.270;10.544;2022-08-05T07:02:44;23.20;99.90
7530;DHT22;3806;52.270;10.544;2022-08-05T07:05:11;23.20;99.90
7530;DHT22;3806;52.270;10.544;2022-08-05T07:07:40;23.20;99.90
7530;DHT22;3806;52.270;10.544;2022-08-05T07:10:06;23.30;99.90
7530;DHT22;3806;52.270;10.544;2022-08-05T07:12:32;23.30;99.90
7530;DHT22;3806;52.270;10.544;2022-08-05T07:15:17;23.30;99.90
7530;DHT22;3806;52.270;10.544;2022-08-05T07:18:01;23.30;99.90
7530;DHT22;3806;52.270;10.544;2022-08-05T07:20:26;23.40;99.90
7530;DHT22;3806;52.270;10.544;2022-08-05T07:22:52;23.50;99.90
7530;DHT22;3806;52.270;10.544;2022-08-05T07:25:17;23.60;99.90
7530;DHT22;3806;52.270;10.544;2022-08-05T07:27:43;23.60;99.90
7530;DHT22;3806;52.270;10.544;2022-08-05T07:30:09;23.50;99.90
7530;DHT22;3806;52.270;10.544;2022-08-05T07:32:36;23.50;99.90
7530;DHT22;3806;52.270;10.544;2022-08-05T07:35:10;23.50;99.90
7530;DHT22;3806;52.270;10.544;2022-08-05T07:37:36;23.50;99.90
7530;DHT22;3806;52.270;10.544;2022-08-05T07:40:03;23.50;99.90
7530;DHT22;3806;52.270;10.544;2022-08-05T07:42:29;23.50;99.90
7530;DHT22;3806;52.270;10.544;2022-08-05T07:44:55;23.50;99.90
7530;DHT22;3806;52.270;10.544;2022-08-05T07:47:21;23.50;99.90
7530;DHT22;3806;52.270;10.544;2022-08-05T07:49:47;23.40;99.90
7530;DHT22;3806;52.270;10.544;2022-08-05T07:52:12;23.40;99.90
7530;DHT22;3806;52.270;10.544;2022-08-05T07:54:38;23.40;99.90
7530;DHT22;3806;52.270;10.544;2022-08-05T07:57:04;23.50;99.90
7530;DHT22;3806;52.270;10.544;2022-08-05T07:59:29;23.40;99.90
7530;DHT22;3806;52.270;10.544;2022-08-05T08:01:55;23.30;99.90
7530;DHT22;3806;52.270;10.544;2022-08-05T08:04:21;23.30;99.90
7530;DHT22;3806;52.270;10.544;2022-08-05T08:06:46;23.20;99.90
7530;DHT22;3806;52.270;10.544;2022-08-05T08:09:12;23.20;99.90
7530;DHT22;3806;52.270;10.544;2022-08-05T08:11:37;23.20;99.90
7530;DHT22;3806;52.270;10.544;2022-08-05T08:14:03;23.30;99.90
7530;DHT22;3806;52.270;10.544;2022-08-05T08:16:29;23.30;99.90
7530;DHT22;3806;52.270;10.544;2022-08-05T08:18:55;23.30;99.90
7530;DHT22;3806;52.270;10.544;2022-08-05T08:21:20;23.40;99.90
7530;DHT22;3806;52.270;10.544;2022-08-05T08:23:46;23.40;99.90
7530;DHT22;3806;52.270;10.544;2022-08-05T08:26:12;23.50;99.90
7530;DHT22;3806;52.270;10.544;2022-08-05T08:28:37;23.60;99.90
7530;DHT22;3806;52.270;10.544;2022-08-05T08:31:07;23.60;99.90
7530;DHT22;3806;52.270;10.544;2022-08-05T08:33:33;23.60;99.90
7530;DHT22;3806;52.270;10.544;2022-08-05T08:35:59;23.60;99.90
7530;DHT22;3806;52.270;10.544;2022-08-05T08:38:24;23.40;99.90
7530;DHT22;3806;52.270;10.544;2022-08-05T08:40:50;23.50;99.90
7530;DHT22;3806;52.270;10.544;2022-08-05T08:43:17;23.50;99.90
7530;DHT22;3806;52.270;10.544;2022-08-05T08:45:43;23.60;99.90
7530;DHT22;3806;52.270;10.544;2022-08-05T08:48:11;23.70;99.90
7530;DHT22;3806;52.270;10.544;2022-08-05T08:50:41;23.70;99.90
7530;DHT22;3806;52.270;10.544;2022-08-05T08:53:09;23.80;99.90
7530;DHT22;3806;52.270;10.544;2022-08-05T08:55:37;23.90;99.90
7530;DHT22;3806;52.270;10.544;2022-08-05T08:58:03;24.00;99.90
7530;DHT22;3806;52.270;10.544;2022-08-05T09:00:29;24.10;99.90
7530;DHT22;3806;52.270;10.544;2022-08-05T09:02:56;24.10;99.90
7530;DHT22;3806;52.270;10.544;2022-08-05T09:05:22;24.30;99.90
7530;DHT22;3806;52.270;10.544;2022-08-05T09:07:49;24.40;99.90
7530;DHT22;3806;52.270;10.544;2022-08-05T09:10:15;24.40;99.90
7530;DHT22;3806;52.270;10.544;2022-08-05T09:12:41;24.50;99.90
7530;DHT22;3806;52.270;10.544;2022-08-05T09:15:07;24.60;99.90
7530;DHT22;3806;52.270;10.544;2022-08-05T09:17:33;24.80;99.90
7530;DHT22;3806;52.270;10.544;2022-08-05T09:19:59;24.90;99.90
7530;DHT22;3806;52.270;10.544;2022-08-05T09:22:25;24.90;99.90
7530;DHT22;3806;52.270;10.544;2022-08-05T09:25:02;24.90;99.90
7530;DHT22;3806;52.270;10.544;2022-08-05T09:27:33;24.90;99.90
7530;DHT22;3806;52.270;10.544;2022-08-05T09:29:59;24.80;99.90
7530;DHT22;3806;52.270;10.544;2022-08-05T09:32:37;24.70;99.90
7530;DHT22;3806;52.270;10.544;2022-08-05T09:35:11;24.60;99.90
7530;DHT22;3806;52.270;10.544;2022-08-05T09:37:39;24.50;99.90
7530;DHT22;3806;52.270;10.544;2022-08-05T09:40:34;24.40;99.90
7530;DHT22;3806;52.270;10.544;2022-08-05T09:43:01;24.30;99.90
7530;DHT22;3806;52.270;10.544;2022-08-05T09:45:40;24.40;99.90
7530;DHT22;3806;52.270;10.544;2022-08-05T09:51:04;24.40;99.90
7530;DHT22;3806;52.270;10.544;2022-08-05T09:53:46;24.40;99.90
7530;DHT22;3806;52.270;10.544;2022-08-05T09:56:13;24.40;99.90
7530;DHT22;3806;52.270;10.544;2022-08-05T09:58:38;24.50;99.90
7530;DHT22;3806;52.270;10.544;2022-08-05T10:01:06;24.50;99.90
7530;DHT22;3806;52.270;10.544;2022-08-05T10:03:33;24.40;99.90
7530;DHT22;3806;52.270;10.544;2022-08-05T10:06:08;24.40;99.90
7530;DHT22;3806;52.270;10.544;2022-08-05T10:08:37;24.40;99.90
7530;DHT22;3806;52.270;10.544;2022-08-05T10:11:05;24.30;99.90
7530;DHT22;3806;52.270;10.544;2022-08-05T10:13:37;24.30;99.90
7530;DHT22;3806;52.270;10.544;2022-08-05T10:16:04;24.20;99.90
7530;DHT22;3806;52.270;10.544;2022-08-05T10:18:31;24.20;99.90
7530;DHT22;3806;52.270;10.544;2022-08-05T10:21:05;24.20;99.90
7530;DHT22;3806;52.270;10.544;2022-08-05T10:23:37;24.20;99.90
7530;DHT22;3806;52.270;10.544;2022-08-05T10:26:08;24.10;99.90
7530;DHT22;3806;52.270;10.544;2022-08-05T10:28:34;24.00;99.90
7530;DHT22;3806;52.270;10.544;2022-08-05T10:31:01;24.00;99.90
7530;DHT22;3806;52.270;10.544;2022-08-05T10:33:28;23.90;99.90
7530;DHT22;3806;52.270;10.544;2022-08-05T10:35:56;23.90;99.90
7530;DHT22;3806;52.270;10.544;2022-08-05T10:38:23;23.90;99.90
7530;DHT22;3806;52.270;10.544;2022-08-05T10:46:08;24.00;99.90
7530;DHT22;3806;52.270;10.544;2022-08-05T10:48:36;24.10;99.90
7530;DHT22;3806;52.270;10.544;2022-08-05T10:51:10;24.10;99.90
7530;DHT22;3806;52.270;10.544;2022-08-05T10:53:58;24.10;99.90
7530;DHT22;3806;52.270;10.544;2022-08-05T10:56:26;24.20;99.90
7530;DHT22;3806;52.270;10.544;2022-08-05T11:04:21;24.00;99.90
7530;DHT22;3806;52.270;10.544;2022-08-05T11:07:04;24.00;99.90
7530;DHT22;3806;52.270;10.544;2022-08-05T11:09:37;24.00;99.90
7530;DHT22;3806;52.270;10.544;2022-08-05T11:15:11;24.00;99.90
7530;DHT22;3806;52.270;10.544;2022-08-05T11:17:41;24.10;99.90
7530;DHT22;3806;52.270;10.544;2022-08-05T11:22:53;24.20;99.90
7530;DHT22;3806;52.270;10.544;2022-08-05T11:25:37;24.20;99.90
7530;DHT22;3806;52.270;10.544;2022-08-05T11:35:59;24.80;99.00
7530;DHT22;3806;52.270;10.544;2022-08-05T11:43:36;25.20;97.50
7530;DHT22;3806;52.270;10.544;2022-08-05T11:46:01;25.30;96.50
7530;DHT22;3806;52.270;10.544;2022-08-05T11:48:27;25.50;95.80
7530;DHT22;3806;52.270;10.544;2022-08-05T11:50:54;25.50;95.70
7530;DHT22;3806;52.270;10.544;2022-08-05T11:53:20;25.50;95.30
7530;DHT22;3806;52.270;10.544;2022-08-05T11:55:57;25.40;95.20
7530;DHT22;3806;52.270;10.544;2022-08-05T12:03:57;24.90;95.80
7530;DHT22;3806;52.270;10.544;2022-08-05T12:06:25;24.80;96.00
7530;DHT22;3806;52.270;10.544;2022-08-05T12:08:55;24.70;96.10
7530;DHT22;3806;52.270;10.544;2022-08-05T12:11:30;24.60;96.10
7530;DHT22;3806;52.270;10.544;2022-08-05T12:13:57;24.50;96.20
7530;DHT22;3806;52.270;10.544;2022-08-05T12:16:25;24.40;96.40
7530;DHT22;3806;52.270;10.544;2022-08-05T12:18:51;24.20;96.60
7530;DHT22;3806;52.270;10.544;2022-08-05T12:21:28;24.10;96.60
7530;DHT22;3806;52.270;10.544;2022-08-05T12:29:15;23.90;96.10
7530;DHT22;3806;52.270;10.544;2022-08-05T12:31:45;23.80;96.00
7530;DHT22;3806;52.270;10.544;2022-08-05T12:34:12;23.80;95.90
7530;DHT22;3806;52.270;10.544;2022-08-05T12:36:38;23.80;95.60
7530;DHT22;3806;52.270;10.544;2022-08-05T12:39:04;23.90;95.20
7530;DHT22;3806;52.270;10.544;2022-08-05T12:41:32;23.90;94.10
7530;DHT22;3806;52.270;10.544;2022-08-05T12:44:03;23.90;94.20
7530;DHT22;3806;52.270;10.544;2022-08-05T12:46:32;23.90;94.00
7530;DHT22;3806;52.270;10.544;2022-08-05T12:54:08;23.90;93.00
7530;DHT22;3806;52.270;10.544;2022-08-05T12:56:40;23.90;92.90
7530;DHT22;3806;52.270;10.544;2022-08-05T12:59:19;23.90;92.80
7530;DHT22;3806;52.270;10.544;2022-08-05T13:01:53;23.90;91.90
7530;DHT22;3806;52.270;10.544;2022-08-05T13:04:20;23.80;91.80
7530;DHT22;3806;52.270;10.544;2022-08-05T13:06:46;23.80;91.80
7530;DHT22;3806;52.270;10.544;2022-08-05T13:09:12;23.80;91.40
7530;DHT22;3806;52.270;10.544;2022-08-05T13:11:43;23.70;91.50
7530;DHT22;3806;52.270;10.544;2022-08-05T13:14:11;23.70;91.60
7530;DHT22;3806;52.270;10.544;2022-08-05T13:19:20;23.80;91.20
7530;DHT22;3806;52.270;10.544;2022-08-05T13:21:47;23.70;91.40
7530;DHT22;3806;52.270;10.544;2022-08-05T13:24:13;23.70;91.70
7530;DHT22;3806;52.270;10.544;2022-08-05T13:26:39;23.80;91.90
7530;DHT22;3806;52.270;10.544;2022-08-05T13:29:04;23.90;91.70
7530;DHT22;3806;52.270;10.544;2022-08-05T13:31:30;23.90;91.60
7530;DHT22;3806;52.270;10.544;2022-08-05T13:33:55;23.80;91.50
7530;DHT22;3806;52.270;10.544;2022-08-05T13:36:21;23.80;91.60
7530;DHT22;3806;52.270;10.544;2022-08-05T13:38:47;23.80;91.70
7530;DHT22;3806;52.270;10.544;2022-08-05T13:41:12;23.80;91.70
7530;DHT22;3806;52.270;10.544;2022-08-05T13:43:40;23.80;91.80
7530;DHT22;3806;52.270;10.544;2022-08-05T13:46:05;23.70;91.80
7530;DHT22;3806;52.270;10.544;2022-08-05T13:48:32;23.70;92.00
7530;DHT22;3806;52.270;10.544;2022-08-05T13:51:11;23.70;92.10
7530;DHT22;3806;52.270;10.544;2022-08-05T13:53:38;23.70;92.20
7530;DHT22;3806;52.270;10.544;2022-08-05T13:56:04;23.60;92.20
7530;DHT22;3806;52.270;10.544;2022-08-05T13:58:30;23.50;92.40
7530;DHT22;3806;52.270;10.544;2022-08-05T14:00:56;23.50;92.60
7530;DHT22;3806;52.270;10.544;2022-08-05T14:03:22;23.50;92.70
7530;DHT22;3806;52.270;10.544;2022-08-05T14:05:47;23.50;92.70
7530;DHT22;3806;52.270;10.544;2022-08-05T14:08:14;23.50;92.70
7530;DHT22;3806;52.270;10.544;2022-08-05T14:10:40;23.40;92.60
7530;DHT22;3806;52.270;10.544;2022-08-05T14:13:05;23.40;92.50
7530;DHT22;3806;52.270;10.544;2022-08-05T14:15:34;23.40;92.40
7530;DHT22;3806;52.270;10.544;2022-08-05T14:18:01;23.40;92.50
7530;DHT22;3806;52.270;10.544;2022-08-05T14:20:28;23.30;92.50
7530;DHT22;3806;52.270;10.544;2022-08-05T14:22:59;23.30;92.60
7530;DHT22;3806;52.270;10.544;2022-08-05T14:25:26;23.20;92.60
7530;DHT22;3806;52.270;10.544;2022-08-05T14:27:51;23.10;92.70
7530;DHT22;3806;52.270;10.544;2022-08-05T14:30:18;23.10;92.70
7530;DHT22;3806;52.270;10.544;2022-08-05T14:32:43;23.10;92.70
7530;DHT22;3806;52.270;10.544;2022-08-05T14:35:09;23.00;92.70
7530;DHT22;3806;52.270;10.544;2022-08-05T14:37:36;23.10;92.80
7530;DHT22;3806;52.270;10.544;2022-08-05T14:40:03;23.10;92.80
7530;DHT22;3806;52.270;10.544;2022-08-05T14:42:29;23.10;92.60
7530;DHT22;3806;52.270;10.544;2022-08-05T14:44:54;23.20;92.60
7530;DHT22;3806;52.270;10.544;2022-08-05T14:47:20;23.20;92.30
7530;DHT22;3806;52.270;10.544;2022-08-05T14:49:46;23.30;92.20
7530;DHT22;3806;52.270;10.544;2022-08-05T14:52:12;23.30;91.80
7530;DHT22;3806;52.270;10.544;2022-08-05T14:54:37;23.30;91.40
7530;DHT22;3806;52.270;10.544;2022-08-05T14:57:03;23.30;91.50
7530;DHT22;3806;52.270;10.544;2022-08-05T14:59:29;23.40;91.30
7530;DHT22;3806;52.270;10.544;2022-08-05T15:01:54;23.40;91.10
7530;DHT22;3806;52.270;10.544;2022-08-05T15:04:21;23.60;91.10
7530;DHT22;3806;52.270;10.544;2022-08-05T15:06:47;23.60;91.00
7530;DHT22;3806;52.270;10.544;2022-08-05T15:09:13;23.70;90.80
7530;DHT22;3806;52.270;10.544;2022-08-05T15:11:39;23.90;90.30
7530;DHT22;3806;52.270;10.544;2022-08-05T15:14:05;23.90;89.80
7530;DHT22;3806;52.270;10.544;2022-08-05T15:16:31;23.90;89.50
7530;DHT22;3806;52.270;10.544;2022-08-05T15:18:56;24.10;89.50
7530;DHT22;3806;52.270;10.544;2022-08-05T15:21:22;24.20;89.40
7530;DHT22;3806;52.270;10.544;2022-08-05T15:23:48;24.20;88.50
7530;DHT22;3806;52.270;10.544;2022-08-05T15:26:13;24.20;87.80
7530;DHT22;3806;52.270;10.544;2022-08-05T15:28:42;24.20;88.00
7530;DHT22;3806;52.270;10.544;2022-08-05T15:31:08;24.00;88.20
7530;DHT22;3806;52.270;10.544;2022-08-05T15:33:34;23.90;88.50
7530;DHT22;3806;52.270;10.544;2022-08-05T15:36:00;23.80;88.60
7530;DHT22;3806;52.270;10.544;2022-08-05T15:38:25;23.80;89.30
7530;DHT22;3806;52.270;10.544;2022-08-05T15:40:51;23.80;89.60
7530;DHT22;3806;52.270;10.544;2022-08-05T15:43:17;23.70;89.00
7530;DHT22;3806;52.270;10.544;2022-08-05T15:45:43;23.70;89.00
7530;DHT22;3806;52.270;10.544;2022-08-05T15:48:09;23.60;88.80
7530;DHT22;3806;52.270;10.544;2022-08-05T15:50:34;23.70;87.80
7530;DHT22;3806;52.270;10.544;2022-08-05T15:53:00;23.70;86.90
7530;DHT22;3806;52.270;10.544;2022-08-05T15:55:26;23.60;86.20
7530;DHT22;3806;52.270;10.544;2022-08-05T15:57:51;23.60;85.40
7530;DHT22;3806;52.270;10.544;2022-08-05T16:00:18;23.60;86.50
7530;DHT22;3806;52.270;10.544;2022-08-05T16:02:43;23.60;86.30
7530;DHT22;3806;52.270;10.544;2022-08-05T16:05:09;23.60;86.50
7530;DHT22;3806;52.270;10.544;2022-08-05T16:07:35;23.70;86.80
7530;DHT22;3806;52.270;10.544;2022-08-05T16:10:00;23.80;87.00
7530;DHT22;3806;52.270;10.544;2022-08-05T16:12:26;23.80;87.20
7530;DHT22;3806;52.270;10.544;2022-08-05T16:14:52;23.80;86.90
7530;DHT22;3806;52.270;10.544;2022-08-05T16:17:17;23.90;87.20
7530;DHT22;3806;52.270;10.544;2022-08-05T16:19:43;23.90;86.70
7530;DHT22;3806;52.270;10.544;2022-08-05T16:22:09;23.90;86.60
7530;DHT22;3806;52.270;10.544;2022-08-05T16:24:35;23.90;86.30
7530;DHT22;3806;52.270;10.544;2022-08-05T16:27:01;24.00;85.50
7530;DHT22;3806;52.270;10.544;2022-08-05T16:29:28;24.00;86.00
7530;DHT22;3806;52.270;10.544;2022-08-05T16:31:54;24.00;85.10
7530;DHT22;3806;52.270;10.544;2022-08-05T16:34:22;24.00;84.90
7530;DHT22;3806;52.270;10.544;2022-08-05T16:36:48;23.90;84.80
7530;DHT22;3806;52.270;10.544;2022-08-05T16:39:14;23.90;84.80
7530;DHT22;3806;52.270;10.544;2022-08-05T16:41:40;23.90;85.00
7530;DHT22;3806;52.270;10.544;2022-08-05T16:44:07;23.90;85.00
7530;DHT22;3806;52.270;10.544;2022-08-05T16:46:33;23.90;85.30
7530;DHT22;3806;52.270;10.544;2022-08-05T16:48:58;23.90;85.70
7530;DHT22;3806;52.270;10.544;2022-08-05T16:51:25;23.90;85.80
7530;DHT22;3806;52.270;10.544;2022-08-05T16:53:51;23.80;85.60